METAR Formatted Surface Weather Observation
Issued by NWS

Home | Current Version | Previous Version | Text Only | Print | Product List | Glossary On
Versions: 1 2 3 4 5 6 7 8 9 10 11 12 13
881
SAUS41 KGYX 260800 COR
MTRNKT
METAR KNKT 260754Z AUTO 28007KT 10SM SCT005 16/14 A2973 RMK AO2
SLP062 T01610144



USA.gov is the U.S. government's official web portal to all federal, state and local government web resources and services.